sensor_id;sensor_type;location;lat;lon;timestamp;P1;durP1;ratioP1;P2;durP2;ratioP2
50549;SDS011;36505;52.512;13.460;2023-08-21T00:01:26;11.55;;;7.32;;
50549;SDS011;36505;52.512;13.460;2023-08-21T00:03:51;15.25;;;7.53;;
50549;SDS011;36505;52.512;13.460;2023-08-21T00:06:17;12.45;;;7.47;;
50549;SDS011;36505;52.512;13.460;2023-08-21T00:08:42;15.15;;;7.32;;
50549;SDS011;36505;52.512;13.460;2023-08-21T00:11:07;13.23;;;7.22;;
50549;SDS011;36505;52.512;13.460;2023-08-21T00:13:33;14.88;;;8.32;;
50549;SDS011;36505;52.512;13.460;2023-08-21T00:15:58;14.05;;;8.40;;
50549;SDS011;36505;52.512;13.460;2023-08-21T00:18:23;11.60;;;8.00;;
50549;SDS011;36505;52.512;13.460;2023-08-21T00:20:49;16.40;;;7.75;;
50549;SDS011;36505;52.512;13.460;2023-08-21T00:23:14;14.07;;;8.00;;
50549;SDS011;36505;52.512;13.460;2023-08-21T00:25:40;15.52;;;8.25;;
50549;SDS011;36505;52.512;13.460;2023-08-21T00:28:10;12.55;;;8.20;;
50549;SDS011;36505;52.512;13.460;2023-08-21T00:30:35;10.98;;;6.85;;
50549;SDS011;36505;52.512;13.460;2023-08-21T00:33:01;13.13;;;8.48;;
50549;SDS011;36505;52.512;13.460;2023-08-21T00:35:26;11.82;;;7.60;;
50549;SDS011;36505;52.512;13.460;2023-08-21T00:37:51;13.88;;;8.50;;
50549;SDS011;36505;52.512;13.460;2023-08-21T00:40:17;15.23;;;8.13;;
50549;SDS011;36505;52.512;13.460;2023-08-21T00:42:42;12.63;;;9.00;;
50549;SDS011;36505;52.512;13.460;2023-08-21T00:45:08;13.43;;;9.32;;
50549;SDS011;36505;52.512;13.460;2023-08-21T00:47:34;15.73;;;8.95;;
50549;SDS011;36505;52.512;13.460;2023-08-21T00:50:00;12.15;;;8.48;;
50549;SDS011;36505;52.512;13.460;2023-08-21T00:52:26;15.57;;;9.35;;
50549;SDS011;36505;52.512;13.460;2023-08-21T00:54:52;14.02;;;8.57;;
50549;SDS011;36505;52.512;13.460;2023-08-21T00:57:18;11.93;;;8.05;;
50549;SDS011;36505;52.512;13.460;2023-08-21T00:59:44;11.77;;;8.55;;
50549;SDS011;36505;52.512;13.460;2023-08-21T01:02:10;12.40;;;7.53;;
50549;SDS011;36505;52.512;13.460;2023-08-21T01:04:36;15.38;;;9.30;;
50549;SDS011;36505;52.512;13.460;2023-08-21T01:07:02;18.20;;;9.15;;
50549;SDS011;36505;52.512;13.460;2023-08-21T01:09:31;12.45;;;8.15;;
50549;SDS011;36505;52.512;13.460;2023-08-21T01:12:04;12.05;;;8.13;;
50549;SDS011;36505;52.512;13.460;2023-08-21T01:17:23;12.27;;;9.32;;
50549;SDS011;36505;52.512;13.460;2023-08-21T01:19:49;13.93;;;8.55;;
50549;SDS011;36505;52.512;13.460;2023-08-21T01:22:16;14.50;;;8.55;;
50549;SDS011;36505;52.512;13.460;2023-08-21T01:24:42;13.90;;;8.95;;
50549;SDS011;36505;52.512;13.460;2023-08-21T01:27:08;11.52;;;8.05;;
50549;SDS011;36505;52.512;13.460;2023-08-21T01:29:35;10.70;;;7.85;;
50549;SDS011;36505;52.512;13.460;2023-08-21T01:32:02;20.60;;;9.73;;
50549;SDS011;36505;52.512;13.460;2023-08-21T01:34:34;13.45;;;8.77;;
50549;SDS011;36505;52.512;13.460;2023-08-21T01:37:03;15.38;;;8.63;;
50549;SDS011;36505;52.512;13.460;2023-08-21T01:39:29;12.38;;;8.18;;
50549;SDS011;36505;52.512;13.460;2023-08-21T01:41:55;15.98;;;9.55;;
50549;SDS011;36505;52.512;13.460;2023-08-21T01:44:21;24.85;;;9.73;;
50549;SDS011;36505;52.512;13.460;2023-08-21T01:46:47;16.75;;;8.60;;
50549;SDS011;36505;52.512;13.460;2023-08-21T01:49:12;14.82;;;9.15;;
50549;SDS011;36505;52.512;13.460;2023-08-21T01:51:37;11.55;;;8.30;;
50549;SDS011;36505;52.512;13.460;2023-08-21T01:54:03;12.90;;;8.98;;
50549;SDS011;36505;52.512;13.460;2023-08-21T01:56:28;13.63;;;8.98;;
50549;SDS011;36505;52.512;13.460;2023-08-21T01:58:54;16.23;;;8.90;;
50549;SDS011;36505;52.512;13.460;2023-08-21T02:01:19;11.90;;;8.82;;
50549;SDS011;36505;52.512;13.460;2023-08-21T02:03:45;15.00;;;9.48;;
50549;SDS011;36505;52.512;13.460;2023-08-21T02:06:10;14.35;;;9.48;;
50549;SDS011;36505;52.512;13.460;2023-08-21T02:08:36;14.38;;;9.25;;
50549;SDS011;36505;52.512;13.460;2023-08-21T02:11:02;15.48;;;8.38;;
50549;SDS011;36505;52.512;13.460;2023-08-21T02:13:27;11.73;;;8.43;;
50549;SDS011;36505;52.512;13.460;2023-08-21T02:15:53;13.20;;;8.35;;
50549;SDS011;36505;52.512;13.460;2023-08-21T02:18:18;12.55;;;8.07;;
50549;SDS011;36505;52.512;13.460;2023-08-21T02:20:43;13.70;;;8.77;;
50549;SDS011;36505;52.512;13.460;2023-08-21T02:23:09;16.27;;;8.68;;
50549;SDS011;36505;52.512;13.460;2023-08-21T02:25:34;13.52;;;8.55;;
50549;SDS011;36505;52.512;13.460;2023-08-21T02:28:00;11.77;;;8.68;;
50549;SDS011;36505;52.512;13.460;2023-08-21T02:30:27;13.15;;;8.18;;
50549;SDS011;36505;52.512;13.460;2023-08-21T02:32:53;14.07;;;9.07;;
50549;SDS011;36505;52.512;13.460;2023-08-21T02:35:19;15.02;;;8.73;;
50549;SDS011;36505;52.512;13.460;2023-08-21T02:37:45;12.73;;;8.13;;
50549;SDS011;36505;52.512;13.460;2023-08-21T02:40:10;14.85;;;8.65;;
50549;SDS011;36505;52.512;13.460;2023-08-21T02:42:36;11.38;;;8.15;;
50549;SDS011;36505;52.512;13.460;2023-08-21T02:45:02;18.83;;;7.88;;
50549;SDS011;36505;52.512;13.460;2023-08-21T02:47:33;12.95;;;8.57;;
50549;SDS011;36505;52.512;13.460;2023-08-21T02:50:08;13.23;;;7.88;;
50549;SDS011;36505;52.512;13.460;2023-08-21T02:52:34;16.13;;;9.02;;
50549;SDS011;36505;52.512;13.460;2023-08-21T02:55:00;13.00;;;8.52;;
50549;SDS011;36505;52.512;13.460;2023-08-21T02:57:26;17.48;;;8.77;;
50549;SDS011;36505;52.512;13.460;2023-08-21T02:59:53;14.38;;;8.50;;
50549;SDS011;36505;52.512;13.460;2023-08-21T03:02:18;16.58;;;8.10;;
50549;SDS011;36505;52.512;13.460;2023-08-21T03:04:44;14.75;;;7.65;;
50549;SDS011;36505;52.512;13.460;2023-08-21T03:07:10;12.98;;;8.40;;
50549;SDS011;36505;52.512;13.460;2023-08-21T03:09:36;13.77;;;7.85;;
50549;SDS011;36505;52.512;13.460;2023-08-21T03:12:02;10.95;;;7.53;;
50549;SDS011;36505;52.512;13.460;2023-08-21T03:14:28;11.30;;;7.63;;
50549;SDS011;36505;52.512;13.460;2023-08-21T03:16:53;15.57;;;7.95;;
50549;SDS011;36505;52.512;13.460;2023-08-21T03:19:18;11.98;;;7.55;;
50549;SDS011;36505;52.512;13.460;2023-08-21T03:21:44;11.73;;;7.78;;
50549;SDS011;36505;52.512;13.460;2023-08-21T03:24:09;11.13;;;7.40;;
50549;SDS011;36505;52.512;13.460;2023-08-21T03:26:35;12.82;;;7.55;;
50549;SDS011;36505;52.512;13.460;2023-08-21T03:29:00;10.57;;;7.75;;
50549;SDS011;36505;52.512;13.460;2023-08-21T03:31:26;13.43;;;7.18;;
50549;SDS011;36505;52.512;13.460;2023-08-21T03:33:52;11.73;;;8.38;;
50549;SDS011;36505;52.512;13.460;2023-08-21T03:36:17;12.73;;;6.80;;
50549;SDS011;36505;52.512;13.460;2023-08-21T03:38:44;10.38;;;6.47;;
50549;SDS011;36505;52.512;13.460;2023-08-21T03:41:09;14.75;;;6.85;;
50549;SDS011;36505;52.512;13.460;2023-08-21T03:43:35;12.85;;;7.68;;
50549;SDS011;36505;52.512;13.460;2023-08-21T03:46:01;12.07;;;7.50;;
50549;SDS011;36505;52.512;13.460;2023-08-21T03:48:26;11.80;;;7.25;;
50549;SDS011;36505;52.512;13.460;2023-08-21T03:50:51;12.73;;;7.43;;
50549;SDS011;36505;52.512;13.460;2023-08-21T03:53:17;10.73;;;6.57;;
50549;SDS011;36505;52.512;13.460;2023-08-21T03:55:43;10.43;;;6.82;;
50549;SDS011;36505;52.512;13.460;2023-08-21T03:58:08;11.50;;;7.22;;
50549;SDS011;36505;52.512;13.460;2023-08-21T04:00:33;11.25;;;7.35;;
50549;SDS011;36505;52.512;13.460;2023-08-21T04:02:59;10.93;;;6.50;;
50549;SDS011;36505;52.512;13.460;2023-08-21T04:05:24;11.27;;;6.80;;
50549;SDS011;36505;52.512;13.460;2023-08-21T04:07:49;11.75;;;6.90;;
50549;SDS011;36505;52.512;13.460;2023-08-21T04:10:15;10.48;;;7.05;;
50549;SDS011;36505;52.512;13.460;2023-08-21T04:12:41;15.73;;;6.85;;
50549;SDS011;36505;52.512;13.460;2023-08-21T04:15:07;9.70;;;6.65;;
50549;SDS011;36505;52.512;13.460;2023-08-21T04:17:33;12.18;;;6.57;;
50549;SDS011;36505;52.512;13.460;2023-08-21T04:19:58;16.95;;;6.97;;
50549;SDS011;36505;52.512;13.460;2023-08-21T04:22:24;10.95;;;6.75;;
50549;SDS011;36505;52.512;13.460;2023-08-21T04:24:49;13.23;;;7.55;;
50549;SDS011;36505;52.512;13.460;2023-08-21T04:27:15;10.63;;;6.72;;
50549;SDS011;36505;52.512;13.460;2023-08-21T04:29:40;10.00;;;6.85;;
50549;SDS011;36505;52.512;13.460;2023-08-21T04:32:06;12.15;;;7.00;;
50549;SDS011;36505;52.512;13.460;2023-08-21T04:34:34;11.27;;;6.97;;
50549;SDS011;36505;52.512;13.460;2023-08-21T04:36:59;10.68;;;6.60;;
50549;SDS011;36505;52.512;13.460;2023-08-21T04:39:25;14.10;;;7.43;;
50549;SDS011;36505;52.512;13.460;2023-08-21T04:41:50;10.70;;;6.90;;
50549;SDS011;36505;52.512;13.460;2023-08-21T04:44:16;11.18;;;6.72;;
50549;SDS011;36505;52.512;13.460;2023-08-21T04:46:42;13.15;;;7.50;;
50549;SDS011;36505;52.512;13.460;2023-08-21T04:49:07;13.00;;;7.43;;
50549;SDS011;36505;52.512;13.460;2023-08-21T04:51:33;13.43;;;6.90;;
50549;SDS011;36505;52.512;13.460;2023-08-21T04:53:59;13.20;;;6.85;;
50549;SDS011;36505;52.512;13.460;2023-08-21T04:56:25;13.80;;;6.95;;
50549;SDS011;36505;52.512;13.460;2023-08-21T04:58:51;9.18;;;6.18;;
50549;SDS011;36505;52.512;13.460;2023-08-21T05:01:17;12.18;;;7.63;;
50549;SDS011;36505;52.512;13.460;2023-08-21T05:03:42;11.13;;;7.43;;
50549;SDS011;36505;52.512;13.460;2023-08-21T05:06:08;11.57;;;6.32;;
50549;SDS011;36505;52.512;13.460;2023-08-21T05:08:33;9.77;;;6.18;;
50549;SDS011;36505;52.512;13.460;2023-08-21T05:10:59;10.32;;;6.63;;
50549;SDS011;36505;52.512;13.460;2023-08-21T05:13:24;12.18;;;6.15;;
50549;SDS011;36505;52.512;13.460;2023-08-21T05:15:51;14.43;;;6.60;;
50549;SDS011;36505;52.512;13.460;2023-08-21T05:18:18;9.88;;;6.95;;
50549;SDS011;36505;52.512;13.460;2023-08-21T05:20:43;11.98;;;7.10;;
50549;SDS011;36505;52.512;13.460;2023-08-21T05:23:09;9.07;;;6.82;;
50549;SDS011;36505;52.512;13.460;2023-08-21T05:25:34;9.90;;;6.70;;
50549;SDS011;36505;52.512;13.460;2023-08-21T05:28:00;12.10;;;7.07;;
50549;SDS011;36505;52.512;13.460;2023-08-21T05:30:25;12.93;;;7.70;;
50549;SDS011;36505;52.512;13.460;2023-08-21T05:32:50;9.60;;;6.72;;
50549;SDS011;36505;52.512;13.460;2023-08-21T05:35:16;12.10;;;7.00;;
50549;SDS011;36505;52.512;13.460;2023-08-21T05:37:45;17.38;;;7.18;;
50549;SDS011;36505;52.512;13.460;2023-08-21T05:40:10;11.07;;;6.20;;
50549;SDS011;36505;52.512;13.460;2023-08-21T05:42:35;12.00;;;7.95;;
50549;SDS011;36505;52.512;13.460;2023-08-21T05:45:01;10.32;;;7.40;;
50549;SDS011;36505;52.512;13.460;2023-08-21T05:47:26;10.75;;;6.28;;
50549;SDS011;36505;52.512;13.460;2023-08-21T05:49:52;16.08;;;7.88;;
50549;SDS011;36505;52.512;13.460;2023-08-21T05:52:18;13.38;;;7.50;;
50549;SDS011;36505;52.512;13.460;2023-08-21T05:54:44;11.82;;;6.90;;
50549;SDS011;36505;52.512;13.460;2023-08-21T05:57:09;10.02;;;6.60;;
50549;SDS011;36505;52.512;13.460;2023-08-21T05:59:34;11.32;;;7.43;;
50549;SDS011;36505;52.512;13.460;2023-08-21T06:02:00;10.20;;;6.50;;
50549;SDS011;36505;52.512;13.460;2023-08-21T06:04:26;11.77;;;7.53;;
50549;SDS011;36505;52.512;13.460;2023-08-21T06:06:52;8.75;;;7.18;;
50549;SDS011;36505;52.512;13.460;2023-08-21T06:09:17;28.35;;;9.52;;
50549;SDS011;36505;52.512;13.460;2023-08-21T06:11:43;19.80;;;8.48;;
50549;SDS011;36505;52.512;13.460;2023-08-21T06:14:08;13.20;;;8.75;;
50549;SDS011;36505;52.512;13.460;2023-08-21T06:16:34;13.60;;;7.63;;
50549;SDS011;36505;52.512;13.460;2023-08-21T06:18:59;11.57;;;7.75;;
50549;SDS011;36505;52.512;13.460;2023-08-21T06:21:25;13.00;;;7.00;;
50549;SDS011;36505;52.512;13.460;2023-08-21T06:23:50;10.05;;;6.55;;
50549;SDS011;36505;52.512;13.460;2023-08-21T06:26:15;10.38;;;6.82;;
50549;SDS011;36505;52.512;13.460;2023-08-21T06:28:41;12.07;;;7.50;;
50549;SDS011;36505;52.512;13.460;2023-08-21T06:31:08;12.57;;;7.47;;
50549;SDS011;36505;52.512;13.460;2023-08-21T06:33:33;11.95;;;6.93;;
50549;SDS011;36505;52.512;13.460;2023-08-21T06:35:59;15.85;;;7.68;;
50549;SDS011;36505;52.512;13.460;2023-08-21T06:38:24;11.88;;;6.57;;
50549;SDS011;36505;52.512;13.460;2023-08-21T06:40:49;10.73;;;6.75;;
50549;SDS011;36505;52.512;13.460;2023-08-21T06:43:16;11.85;;;7.45;;
50549;SDS011;36505;52.512;13.460;2023-08-21T06:45:42;12.70;;;7.30;;
50549;SDS011;36505;52.512;13.460;2023-08-21T06:48:07;8.98;;;6.50;;
50549;SDS011;36505;52.512;13.460;2023-08-21T06:50:33;10.35;;;6.43;;
50549;SDS011;36505;52.512;13.460;2023-08-21T06:52:58;12.43;;;6.45;;
50549;SDS011;36505;52.512;13.460;2023-08-21T06:55:23;10.20;;;5.32;;
50549;SDS011;36505;52.512;13.460;2023-08-21T06:57:49;11.48;;;6.55;;
50549;SDS011;36505;52.512;13.460;2023-08-21T07:00:14;11.52;;;6.45;;
50549;SDS011;36505;52.512;13.460;2023-08-21T07:02:40;9.05;;;5.85;;
50549;SDS011;36505;52.512;13.460;2023-08-21T07:05:05;9.07;;;5.68;;
50549;SDS011;36505;52.512;13.460;2023-08-21T07:07:31;12.55;;;5.82;;
50549;SDS011;36505;52.512;13.460;2023-08-21T07:09:56;12.60;;;5.63;;
50549;SDS011;36505;52.512;13.460;2023-08-21T07:12:22;12.95;;;5.75;;
50549;SDS011;36505;52.512;13.460;2023-08-21T07:14:47;12.32;;;5.97;;
50549;SDS011;36505;52.512;13.460;2023-08-21T07:17:13;7.93;;;5.13;;
50549;SDS011;36505;52.512;13.460;2023-08-21T07:19:38;9.98;;;5.28;;
50549;SDS011;36505;52.512;13.460;2023-08-21T07:22:04;8.27;;;4.97;;
50549;SDS011;36505;52.512;13.460;2023-08-21T07:24:29;10.88;;;5.30;;
50549;SDS011;36505;52.512;13.460;2023-08-21T07:26:54;10.52;;;5.60;;
50549;SDS011;36505;52.512;13.460;2023-08-21T07:29:20;11.57;;;4.45;;
50549;SDS011;36505;52.512;13.460;2023-08-21T07:31:45;7.57;;;4.60;;
50549;SDS011;36505;52.512;13.460;2023-08-21T07:34:11;10.07;;;3.78;;
50549;SDS011;36505;52.512;13.460;2023-08-21T07:36:36;6.95;;;4.25;;
50549;SDS011;36505;52.512;13.460;2023-08-21T07:39:01;8.07;;;3.97;;
50549;SDS011;36505;52.512;13.460;2023-08-21T07:41:27;9.45;;;4.80;;
50549;SDS011;36505;52.512;13.460;2023-08-21T07:43:52;9.30;;;4.00;;
50549;SDS011;36505;52.512;13.460;2023-08-21T07:46:17;5.75;;;3.95;;
50549;SDS011;36505;52.512;13.460;2023-08-21T07:48:44;7.32;;;3.70;;
50549;SDS011;36505;52.512;13.460;2023-08-21T07:51:10;8.43;;;3.17;;
50549;SDS011;36505;52.512;13.460;2023-08-21T07:53:35;8.10;;;3.35;;
50549;SDS011;36505;52.512;13.460;2023-08-21T07:56:01;9.18;;;3.38;;
50549;SDS011;36505;52.512;13.460;2023-08-21T07:58:28;4.97;;;2.88;;
50549;SDS011;36505;52.512;13.460;2023-08-21T08:00:54;8.20;;;3.10;;
50549;SDS011;36505;52.512;13.460;2023-08-21T08:03:20;8.45;;;2.83;;
50549;SDS011;36505;52.512;13.460;2023-08-21T08:05:45;4.47;;;2.63;;
50549;SDS011;36505;52.512;13.460;2023-08-21T08:08:11;7.93;;;3.47;;
50549;SDS011;36505;52.512;13.460;2023-08-21T08:10:37;6.07;;;2.75;;
50549;SDS011;36505;52.512;13.460;2023-08-21T08:13:06;9.25;;;2.90;;
50549;SDS011;36505;52.512;13.460;2023-08-21T08:15:32;5.10;;;2.80;;
50549;SDS011;36505;52.512;13.460;2023-08-21T08:17:59;5.82;;;2.30;;
50549;SDS011;36505;52.512;13.460;2023-08-21T08:20:25;5.25;;;2.65;;
50549;SDS011;36505;52.512;13.460;2023-08-21T08:22:51;7.93;;;2.72;;
50549;SDS011;36505;52.512;13.460;2023-08-21T08:25:16;5.25;;;2.30;;
50549;SDS011;36505;52.512;13.460;2023-08-21T08:27:42;10.18;;;2.10;;
50549;SDS011;36505;52.512;13.460;2023-08-21T08:30:08;6.45;;;2.30;;
50549;SDS011;36505;52.512;13.460;2023-08-21T08:32:34;5.60;;;2.38;;
50549;SDS011;36505;52.512;13.460;2023-08-21T08:34:59;6.43;;;2.60;;
50549;SDS011;36505;52.512;13.460;2023-08-21T08:37:25;7.20;;;2.72;;
50549;SDS011;36505;52.512;13.460;2023-08-21T08:39:50;7.30;;;2.38;;
50549;SDS011;36505;52.512;13.460;2023-08-21T08:42:16;7.45;;;2.53;;
50549;SDS011;36505;52.512;13.460;2023-08-21T08:44:42;4.80;;;2.40;;
50549;SDS011;36505;52.512;13.460;2023-08-21T08:47:08;8.48;;;2.53;;
50549;SDS011;36505;52.512;13.460;2023-08-21T08:49:35;10.15;;;2.55;;
50549;SDS011;36505;52.512;13.460;2023-08-21T08:52:04;11.20;;;2.50;;
50549;SDS011;36505;52.512;13.460;2023-08-21T08:54:30;7.03;;;2.50;;
50549;SDS011;36505;52.512;13.460;2023-08-21T08:56:56;3.88;;;1.92;;
50549;SDS011;36505;52.512;13.460;2023-08-21T08:59:21;6.03;;;1.98;;
50549;SDS011;36505;52.512;13.460;2023-08-21T09:01:47;5.13;;;1.88;;
50549;SDS011;36505;52.512;13.460;2023-08-21T09:04:13;8.05;;;1.65;;
50549;SDS011;36505;52.512;13.460;2023-08-21T09:06:38;4.07;;;1.50;;
50549;SDS011;36505;52.512;13.460;2023-08-21T09:09:04;4.35;;;1.35;;
50549;SDS011;36505;52.512;13.460;2023-08-21T09:11:30;4.28;;;1.23;;
50549;SDS011;36505;52.512;13.460;2023-08-21T09:13:58;3.05;;;1.30;;
50549;SDS011;36505;52.512;13.460;2023-08-21T09:16:24;3.38;;;1.88;;
50549;SDS011;36505;52.512;13.460;2023-08-21T09:18:55;2.88;;;1.10;;
50549;SDS011;36505;52.512;13.460;2023-08-21T09:21:22;6.93;;;1.08;;
50549;SDS011;36505;52.512;13.460;2023-08-21T09:23:51;2.42;;;0.85;;
50549;SDS011;36505;52.512;13.460;2023-08-21T09:26:23;3.17;;;1.10;;
50549;SDS011;36505;52.512;13.460;2023-08-21T09:28:49;3.58;;;0.90;;
50549;SDS011;36505;52.512;13.460;2023-08-21T09:31:15;3.95;;;1.05;;
50549;SDS011;36505;52.512;13.460;2023-08-21T09:33:41;2.65;;;1.45;;
50549;SDS011;36505;52.512;13.460;2023-08-21T09:36:08;2.78;;;1.10;;
50549;SDS011;36505;52.512;13.460;2023-08-21T09:38:34;6.03;;;1.02;;
50549;SDS011;36505;52.512;13.460;2023-08-21T09:41:01;5.80;;;1.20;;
50549;SDS011;36505;52.512;13.460;2023-08-21T09:43:27;3.00;;;1.20;;
50549;SDS011;36505;52.512;13.460;2023-08-21T09:45:53;5.45;;;0.80;;
50549;SDS011;36505;52.512;13.460;2023-08-21T09:48:22;3.60;;;1.20;;
50549;SDS011;36505;52.512;13.460;2023-08-21T09:50:52;4.65;;;1.20;;
50549;SDS011;36505;52.512;13.460;2023-08-21T09:53:19;2.47;;;1.30;;
50549;SDS011;36505;52.512;13.460;2023-08-21T09:55:47;3.20;;;1.00;;
50549;SDS011;36505;52.512;13.460;2023-08-21T09:58:13;4.38;;;1.13;;
50549;SDS011;36505;52.512;13.460;2023-08-21T10:00:41;5.25;;;1.73;;
50549;SDS011;36505;52.512;13.460;2023-08-21T10:03:07;4.72;;;0.98;;
50549;SDS011;36505;52.512;13.460;2023-08-21T10:05:36;5.03;;;1.30;;
50549;SDS011;36505;52.512;13.460;2023-08-21T10:08:02;4.63;;;0.90;;
50549;SDS011;36505;52.512;13.460;2023-08-21T10:10:30;5.47;;;1.35;;
50549;SDS011;36505;52.512;13.460;2023-08-21T10:12:58;2.03;;;1.10;;
50549;SDS011;36505;52.512;13.460;2023-08-21T10:15:24;4.50;;;0.98;;
50549;SDS011;36505;52.512;13.460;2023-08-21T10:17:50;4.95;;;1.17;;
50549;SDS011;36505;52.512;13.460;2023-08-21T10:20:20;3.38;;;1.15;;
50549;SDS011;36505;52.512;13.460;2023-08-21T10:22:49;5.70;;;1.25;;
50549;SDS011;36505;52.512;13.460;2023-08-21T10:25:24;2.33;;;0.80;;
50549;SDS011;36505;52.512;13.460;2023-08-21T10:27:56;4.50;;;1.20;;
50549;SDS011;36505;52.512;13.460;2023-08-21T10:30:24;3.30;;;0.95;;
50549;SDS011;36505;52.512;13.460;2023-08-21T10:32:51;2.03;;;0.98;;
50549;SDS011;36505;52.512;13.460;2023-08-21T10:35:19;3.85;;;1.33;;
50549;SDS011;36505;52.512;13.460;2023-08-21T10:38:05;5.10;;;1.25;;
50549;SDS011;36505;52.512;13.460;2023-08-21T10:40:31;8.32;;;1.27;;
50549;SDS011;36505;52.512;13.460;2023-08-21T10:42:57;2.92;;;1.40;;
50549;SDS011;36505;52.512;13.460;2023-08-21T10:45:23;6.25;;;1.38;;
50549;SDS011;36505;52.512;13.460;2023-08-21T10:47:48;3.35;;;1.17;;
50549;SDS011;36505;52.512;13.460;2023-08-21T10:50:15;4.65;;;1.30;;
50549;SDS011;36505;52.512;13.460;2023-08-21T10:52:42;4.05;;;1.33;;
50549;SDS011;36505;52.512;13.460;2023-08-21T10:55:10;2.53;;;1.15;;
50549;SDS011;36505;52.512;13.460;2023-08-21T10:57:37;8.02;;;1.58;;
50549;SDS011;36505;52.512;13.460;2023-08-21T11:00:07;2.40;;;1.00;;
50549;SDS011;36505;52.512;13.460;2023-08-21T11:02:37;2.80;;;1.55;;
50549;SDS011;36505;52.512;13.460;2023-08-21T11:05:04;7.70;;;1.42;;
50549;SDS011;36505;52.512;13.460;2023-08-21T11:07:30;5.88;;;1.40;;
50549;SDS011;36505;52.512;13.460;2023-08-21T11:10:02;1.98;;;0.98;;
50549;SDS011;36505;52.512;13.460;2023-08-21T11:12:28;4.53;;;1.27;;
50549;SDS011;36505;52.512;13.460;2023-08-21T11:14:54;3.92;;;1.63;;
50549;SDS011;36505;52.512;13.460;2023-08-21T11:17:19;2.83;;;1.17;;
50549;SDS011;36505;52.512;13.460;2023-08-21T11:19:44;4.28;;;1.70;;
50549;SDS011;36505;52.512;13.460;2023-08-21T11:22:11;3.95;;;1.00;;
50549;SDS011;36505;52.512;13.460;2023-08-21T11:27:05;2.00;;;0.80;;
50549;SDS011;36505;52.512;13.460;2023-08-21T11:29:40;5.22;;;1.20;;
50549;SDS011;36505;52.512;13.460;2023-08-21T11:34:38;4.07;;;1.23;;
50549;SDS011;36505;52.512;13.460;2023-08-21T11:37:04;4.93;;;1.58;;
50549;SDS011;36505;52.512;13.460;2023-08-21T11:39:38;2.33;;;0.95;;
50549;SDS011;36505;52.512;13.460;2023-08-21T11:42:13;4.28;;;1.17;;
50549;SDS011;36505;52.512;13.460;2023-08-21T11:44:43;4.30;;;1.20;;
50549;SDS011;36505;52.512;13.460;2023-08-21T11:47:11;5.03;;;1.17;;
50549;SDS011;36505;52.512;13.460;2023-08-21T11:49:37;4.68;;;1.10;;
50549;SDS011;36505;52.512;13.460;2023-08-21T11:52:04;4.20;;;1.02;;
50549;SDS011;36505;52.512;13.460;2023-08-21T11:54:36;5.03;;;1.02;;
50549;SDS011;36505;52.512;13.460;2023-08-21T11:57:12;3.38;;;1.00;;
50549;SDS011;36505;52.512;13.460;2023-08-21T11:59:38;5.07;;;1.35;;
50549;SDS011;36505;52.512;13.460;2023-08-21T12:02:13;4.00;;;1.23;;
50549;SDS011;36505;52.512;13.460;2023-08-21T12:04:40;5.22;;;1.52;;
50549;SDS011;36505;52.512;13.460;2023-08-21T12:07:06;4.82;;;2.17;;
50549;SDS011;36505;52.512;13.460;2023-08-21T12:09:31;5.43;;;1.60;;
50549;SDS011;36505;52.512;13.460;2023-08-21T12:11:57;3.90;;;1.25;;
50549;SDS011;36505;52.512;13.460;2023-08-21T12:14:22;8.23;;;1.45;;
50549;SDS011;36505;52.512;13.460;2023-08-21T12:16:48;4.53;;;1.08;;
50549;SDS011;36505;52.512;13.460;2023-08-21T12:19:13;3.90;;;1.30;;
50549;SDS011;36505;52.512;13.460;2023-08-21T12:21:39;5.05;;;1.17;;
50549;SDS011;36505;52.512;13.460;2023-08-21T12:24:05;3.83;;;1.17;;
50549;SDS011;36505;52.512;13.460;2023-08-21T12:26:31;2.92;;;0.77;;
50549;SDS011;36505;52.512;13.460;2023-08-21T12:28:57;2.83;;;1.15;;
50549;SDS011;36505;52.512;13.460;2023-08-21T12:31:23;3.20;;;1.27;;
50549;SDS011;36505;52.512;13.460;2023-08-21T12:33:48;3.35;;;1.20;;
50549;SDS011;36505;52.512;13.460;2023-08-21T12:36:14;6.05;;;1.40;;
50549;SDS011;36505;52.512;13.460;2023-08-21T12:38:40;2.30;;;1.17;;
50549;SDS011;36505;52.512;13.460;2023-08-21T12:41:05;6.53;;;1.65;;
50549;SDS011;36505;52.512;13.460;2023-08-21T12:43:30;4.07;;;1.42;;
50549;SDS011;36505;52.512;13.460;2023-08-21T12:45:56;1.92;;;0.90;;
50549;SDS011;36505;52.512;13.460;2023-08-21T12:48:22;8.60;;;1.42;;
50549;SDS011;36505;52.512;13.460;2023-08-21T12:50:47;6.65;;;1.95;;
50549;SDS011;36505;52.512;13.460;2023-08-21T12:53:13;5.32;;;1.30;;
50549;SDS011;36505;52.512;13.460;2023-08-21T12:55:38;4.32;;;1.00;;
50549;SDS011;36505;52.512;13.460;2023-08-21T12:58:03;4.15;;;1.67;;
50549;SDS011;36505;52.512;13.460;2023-08-21T13:00:29;3.75;;;1.33;;
50549;SDS011;36505;52.512;13.460;2023-08-21T13:02:55;4.75;;;1.58;;
50549;SDS011;36505;52.512;13.460;2023-08-21T13:05:20;4.80;;;1.55;;
50549;SDS011;36505;52.512;13.460;2023-08-21T13:07:46;1.55;;;0.98;;
50549;SDS011;36505;52.512;13.460;2023-08-21T13:10:13;4.20;;;1.65;;
50549;SDS011;36505;52.512;13.460;2023-08-21T13:12:38;6.53;;;1.27;;
50549;SDS011;36505;52.512;13.460;2023-08-21T13:15:04;3.40;;;1.00;;
50549;SDS011;36505;52.512;13.460;2023-08-21T13:17:32;3.92;;;1.67;;
50549;SDS011;36505;52.512;13.460;2023-08-21T13:19:57;3.65;;;1.00;;
50549;SDS011;36505;52.512;13.460;2023-08-21T13:22:23;5.60;;;1.10;;
50549;SDS011;36505;52.512;13.460;2023-08-21T13:24:48;5.25;;;0.90;;
50549;SDS011;36505;52.512;13.460;2023-08-21T13:27:14;2.60;;;1.10;;
50549;SDS011;36505;52.512;13.460;2023-08-21T13:29:39;8.30;;;1.08;;
50549;SDS011;36505;52.512;13.460;2023-08-21T13:32:05;3.03;;;1.02;;
50549;SDS011;36505;52.512;13.460;2023-08-21T13:34:30;3.33;;;1.05;;
50549;SDS011;36505;52.512;13.460;2023-08-21T13:36:56;3.20;;;0.93;;
50549;SDS011;36505;52.512;13.460;2023-08-21T13:39:21;5.20;;;1.20;;
50549;SDS011;36505;52.512;13.460;2023-08-21T13:41:51;3.83;;;1.20;;
50549;SDS011;36505;52.512;13.460;2023-08-21T13:44:17;2.20;;;1.05;;
50549;SDS011;36505;52.512;13.460;2023-08-21T13:46:42;4.00;;;1.10;;
50549;SDS011;36505;52.512;13.460;2023-08-21T13:49:07;4.93;;;1.20;;
50549;SDS011;36505;52.512;13.460;2023-08-21T13:51:34;7.15;;;1.35;;
50549;SDS011;36505;52.512;13.460;2023-08-21T13:54:00;6.55;;;1.10;;
50549;SDS011;36505;52.512;13.460;2023-08-21T13:56:25;3.47;;;1.45;;
50549;SDS011;36505;52.512;13.460;2023-08-21T13:58:51;8.70;;;2.00;;
50549;SDS011;36505;52.512;13.460;2023-08-21T14:01:16;5.70;;;1.25;;
50549;SDS011;36505;52.512;13.460;2023-08-21T14:03:41;2.65;;;0.98;;
50549;SDS011;36505;52.512;13.460;2023-08-21T14:06:07;3.50;;;1.10;;
50549;SDS011;36505;52.512;13.460;2023-08-21T14:08:36;3.03;;;0.90;;
50549;SDS011;36505;52.512;13.460;2023-08-21T14:11:02;5.95;;;1.20;;
50549;SDS011;36505;52.512;13.460;2023-08-21T14:13:27;2.88;;;1.00;;
50549;SDS011;36505;52.512;13.460;2023-08-21T14:15:53;4.90;;;1.17;;
50549;SDS011;36505;52.512;13.460;2023-08-21T14:18:18;5.20;;;0.90;;
50549;SDS011;36505;52.512;13.460;2023-08-21T14:20:44;3.60;;;1.13;;
50549;SDS011;36505;52.512;13.460;2023-08-21T14:23:09;5.25;;;1.70;;
50549;SDS011;36505;52.512;13.460;2023-08-21T14:25:35;6.07;;;1.38;;
50549;SDS011;36505;52.512;13.460;2023-08-21T14:28:02;4.18;;;0.95;;
50549;SDS011;36505;52.512;13.460;2023-08-21T14:30:27;4.68;;;1.00;;